Time;durP1;ratioP1;P1;durP2;ratioP2;P2;SDS_P1;SDS_P2;PMS_P1;PMS_P2;Temp;Humidity;BMP_temperature;BMP_pressure;BME280_temperature;BME280_humidity;BME280_pressure;Samples;Min_cycle;Max_cycle;Signal;HPM_P1;HPM_P2
2021/12/10 00:01:09;;;;;;;1.70;1.10;;;;;;;3.19;76.35;95411.88;5068252;28;20044;-75
2021/12/10 00:03:44;;;;;;;3.03;1.30;;;;;;;3.18;74.66;95405.09;5077037;28;20049;-76
2021/12/10 00:06:19;;;;;;;2.38;1.23;;;;;;;3.14;74.00;95403.81;5076629;28;20063;-76
2021/12/10 00:08:49;;;;;;;2.72;1.30;;;;;;;3.07;74.05;95388.19;5060804;28;20057;-75
2021/12/10 00:11:20;;;;;;;2.60;1.77;;;;;;;3.02;75.16;95380.19;5054079;28;20048;-76
2021/12/10 00:13:48;;;;;;;4.60;1.60;;;;;;;3.01;74.31;95382.91;5054355;28;20053;-75
2021/12/10 00:16:19;;;;;;;2.58;1.27;;;;;;;2.98;75.57;95381.47;5053828;28;20049;-75
2021/12/10 00:18:52;;;;;;;4.43;1.80;;;;;;;3.01;76.28;95372.59;5054080;28;20504;-75
2021/12/10 00:21:21;;;;;;;4.25;1.48;;;;;;;3.00;75.60;95369.22;5054138;28;20044;-76
2021/12/10 00:23:50;;;;;;;3.60;0.95;;;;;;;3.00;75.76;95356.34;5053494;28;20057;-75
2021/12/10 00:26:21;;;;;;;4.57;1.55;;;;;;;3.03;76.63;95355.22;5053535;28;20044;-76
2021/12/10 00:28:49;;;;;;;3.08;1.20;;;;;;;3.06;76.62;95350.53;5053976;28;20045;-75
2021/12/10 00:31:31;;;;;;;2.20;1.13;;;;;;;3.08;76.01;95342.63;5053534;28;20064;-75
2021/12/10 00:34:02;;;;;;;4.97;1.83;;;;;;;3.06;75.26;95335.09;5053392;28;20052;-75
2021/12/10 00:36:31;;;;;;;2.92;1.60;;;;;;;3.05;74.98;95320.56;5053132;28;20514;-75
2021/12/10 00:39:01;;;;;;;3.72;1.95;;;;;;;3.00;74.19;95325.44;5053426;28;20056;-75
2021/12/10 00:41:29;;;;;;;5.03;2.00;;;;;;;2.97;74.71;95319.81;5053516;28;20056;-75
2021/12/10 00:43:57;;;;;;;5.25;2.95;;;;;;;2.96;74.53;95318.22;5053049;28;20065;-76
2021/12/10 00:46:25;;;;;;;4.43;1.42;;;;;;;2.92;73.67;95316.94;5052745;28;20056;-75
2021/12/10 00:48:53;;;;;;;8.70;1.70;;;;;;;2.84;74.13;95305.69;5052887;28;20053;-75
2021/12/10 00:51:21;;;;;;;3.78;1.65;;;;;;;2.78;73.86;95301.19;5052928;28;20060;-76
2021/12/10 00:53:48;;;;;;;4.18;1.70;;;;;;;2.72;74.18;95295.91;5053094;28;20057;-76
2021/12/10 00:56:16;;;;;;;4.20;2.05;;;;;;;2.65;74.17;95288.03;5052729;28;20175;-75
2021/12/10 00:58:44;;;;;;;4.10;1.50;;;;;;;2.62;74.50;95285.78;5053675;28;20052;-75
2021/12/10 01:01:16;;;;;;;3.90;1.67;;;;;;;2.62;76.23;95280.63;5052488;28;20048;-75
2021/12/10 01:03:49;;;;;;;4.05;1.88;;;;;;;2.66;76.27;95281.91;5052873;28;20044;-76
2021/12/10 01:06:19;;;;;;;3.65;1.55;;;;;;;2.66;75.03;95281.91;5052590;28;20060;-75
2021/12/10 01:08:50;;;;;;;5.13;2.08;;;;;;;2.63;74.77;95277.09;5052667;28;20052;-75
2021/12/10 01:11:22;;;;;;;6.15;2.42;;;;;;;2.58;74.83;95274.19;5052418;28;20048;-76
2021/12/10 01:13:53;;;;;;;6.68;2.85;;;;;;;2.53;74.33;95276.47;5052453;28;20510;-75
2021/12/10 01:25:03;;;;;;;5.30;2.25;;;;;;;2.30;74.96;95251.41;5052485;28;20522;-75
2021/12/10 01:27:35;;;;;;;7.32;3.33;;;;;;;2.29;76.13;95254.94;5052164;28;20056;-75
2021/12/10 01:30:09;;;;;;;7.83;2.50;;;;;;;2.29;77.02;95257.53;5052412;28;20576;-75
2021/12/10 01:32:40;;;;;;;4.25;2.85;;;;;;;2.29;77.09;95244.66;5052658;28;20751;-76
2021/12/10 01:35:13;;;;;;;7.05;3.00;;;;;;;2.26;77.19;95237.28;5052242;28;20044;-75
2021/12/10 01:37:40;;;;;;;7.28;2.67;;;;;;;2.21;76.55;95236.97;5051813;28;20071;-75
2021/12/10 01:40:10;;;;;;;3.88;2.65;;;;;;;2.20;77.41;95232.78;5052391;28;20053;-76
2021/12/10 01:42:43;;;;;;;4.85;2.47;;;;;;;2.18;76.98;95224.41;5052735;28;20048;-75
2021/12/10 01:45:18;;;;;;;;;;;;;;;2.20;77.46;95225.06;5053004;28;20052;-75
2021/12/10 01:47:53;;;;;;;5.43;2.72;;;;;;;2.17;76.90;95218.47;5051815;28;20125;-75
2021/12/10 01:50:22;;;;;;;4.78;2.53;;;;;;;2.12;76.54;95227.63;5052310;28;20060;-76
2021/12/10 01:52:52;;;;;;;4.45;2.40;;;;;;;2.10;76.89;95216.69;5052512;28;20549;-75
2021/12/10 01:55:22;;;;;;;5.88;2.83;;;;;;;2.06;76.57;95209.31;5053140;28;20057;-75
2021/12/10 01:57:51;;;;;;;6.90;2.95;;;;;;;2.00;76.95;95209.97;5052508;28;20049;-75
2021/12/10 02:00:22;;;;;;;5.60;2.67;;;;;;;1.97;77.47;95202.59;5055868;28;20060;-75
2021/12/10 02:02:50;;;;;;;5.38;3.03;;;;;;;1.97;78.32;95194.88;5056176;28;20049;-75
2021/12/10 02:05:19;;;;;;;5.43;3.35;;;;;;;1.95;77.77;95185.72;5056133;28;20532;-75
2021/12/10 02:07:49;;;;;;;5.80;3.67;;;;;;;1.91;77.48;95179.28;5055944;28;20045;-75
2021/12/10 02:10:20;;;;;;;7.65;3.80;;;;;;;1.84;76.82;95171.44;5056281;28;20505;-75
2021/12/10 02:12:48;;;;;;;6.53;3.67;;;;;;;1.78;77.12;95167.72;5056268;28;20453;-75
2021/12/10 02:15:16;;;;;;;9.02;4.25;;;;;;;1.72;76.93;95170.94;5076965;28;20036;-75
2021/12/10 02:17:47;;;;;;;7.00;5.35;;;;;;;1.64;76.68;95169.19;5079944;28;20032;-75
2021/12/10 02:20:21;;;;;;;8.15;4.20;;;;;;;1.58;77.04;95169.03;5062799;28;20045;-76
2021/12/10 02:22:51;;;;;;;7.00;5.18;;;;;;;1.52;76.86;95161.97;5056492;28;20052;-75
2021/12/10 02:25:22;;;;;;;10.43;5.18;;;;;;;1.45;77.88;95156.66;5062803;28;20048;-75
2021/12/10 02:27:50;;;;;;;8.88;5.05;;;;;;;1.42;77.54;95149.25;5079754;28;20059;-75
2021/12/10 02:30:19;;;;;;;11.40;6.75;;;;;;;1.37;77.53;95147.19;5062127;28;20045;-75
2021/12/10 02:32:47;;;;;;;14.77;6.25;;;;;;;1.31;77.31;95145.28;5055559;28;20068;-76
2021/12/10 02:35:16;;;;;;;13.90;6.80;;;;;;;1.24;77.50;95139.16;5056404;28;20053;-75
2021/12/10 02:37:46;;;;;;;10.25;6.57;;;;;;;1.21;78.02;95127.44;5055732;28;20056;-75
2021/12/10 02:40:19;;;;;;;10.60;5.93;;;;;;;1.22;78.01;95134.19;5056250;28;20056;-75
2021/12/10 02:42:48;;;;;;;8.65;5.78;;;;;;;1.21;77.94;95127.44;5055866;28;20045;-75
2021/12/10 02:45:17;;;;;;;13.55;7.70;;;;;;;1.15;77.43;95117.78;5055661;28;20075;-76
2021/12/10 02:47:46;;;;;;;9.45;7.13;;;;;;;1.12;78.03;95105.28;5055531;28;20057;-75
2021/12/10 02:50:16;;;;;;;10.15;6.68;;;;;;;1.11;78.65;95101.09;5055418;28;20051;-75
2021/12/10 02:52:44;;;;;;;13.30;6.90;;;;;;;1.11;79.14;95088.25;5070689;28;20045;-75
2021/12/10 02:55:15;;;;;;;10.18;5.90;;;;;;;1.10;78.50;95078.94;5075016;28;20052;-75
2021/12/10 02:57:50;;;;;;;12.13;7.43;;;;;;;1.07;78.45;95074.13;5067666;28;20049;-75
2021/12/10 03:00:22;;;;;;;10.63;7.43;;;;;;;1.07;78.57;95063.06;5056539;28;20545;-75
2021/12/10 03:02:50;;;;;;;12.82;7.07;;;;;;;1.03;78.15;95067.72;5055956;28;20060;-75
2021/12/10 03:05:18;;;;;;;13.73;7.95;;;;;;;1.02;78.65;95058.41;5066501;28;20057;-75
2021/12/10 03:07:45;;;;;;;12.57;6.80;;;;;;;1.01;78.37;95056.81;5074240;28;20049;-75
2021/12/10 03:10:18;;;;;;;11.43;7.22;;;;;;;0.97;78.19;95058.09;5058307;28;20060;-75
2021/12/10 03:12:47;;;;;;;11.27;7.72;;;;;;;0.93;77.96;95052.47;5055247;28;20068;-76
2021/12/10 03:15:20;;;;;;;15.93;8.40;;;;;;;0.88;77.98;95046.22;5055365;28;20426;-76
2021/12/10 03:17:49;;;;;;;12.98;7.50;;;;;;;0.86;78.65;95050.72;5055142;28;20053;-76
2021/12/10 03:20:20;;;;;;;13.20;7.90;;;;;;;0.87;79.88;95050.53;5055217;28;20052;-76
2021/12/10 03:22:48;;;;;;;12.90;7.00;;;;;;;0.86;79.16;95043.81;5055021;28;20072;-75
2021/12/10 03:25:17;;;;;;;10.95;6.32;;;;;;;0.79;78.43;95035.94;5055107;28;20052;-75
2021/12/10 03:27:47;;;;;;;11.27;7.32;;;;;;;0.75;78.76;95033.84;5054676;28;20541;-75
2021/12/10 03:30:17;;;;;;;13.77;8.00;;;;;;;0.75;79.30;95026.94;5055392;28;20053;-75
2021/12/10 03:32:45;;;;;;;11.80;7.22;;;;;;;0.70;78.59;95030.94;5055065;28;20075;-76
2021/12/10 03:35:16;;;;;;;16.75;8.35;;;;;;;0.62;78.06;95034.31;5054813;28;20052;-76
2021/12/10 03:37:45;;;;;;;16.58;9.50;;;;;;;0.58;78.80;95038.94;5054411;28;20049;-75
2021/12/10 03:40:15;;;;;;;12.40;8.45;;;;;;;0.58;78.80;95033.03;5055437;28;20052;-75
2021/12/10 03:42:43;;;;;;;15.10;8.77;;;;;;;0.57;79.46;95027.09;5054854;28;20083;-75
2021/12/10 03:45:14;;;;;;;18.05;9.65;;;;;;;0.58;79.39;95023.56;5054988;28;20236;-75
2021/12/10 03:47:42;;;;;;;16.00;8.38;;;;;;;0.55;78.86;95017.97;5054389;28;20465;-75
2021/12/10 03:50:13;;;;;;;13.82;7.47;;;;;;;0.48;78.35;94997.28;5063541;28;20056;-75
2021/12/10 03:52:41;;;;;;;14.57;8.73;;;;;;;0.42;77.94;94997.91;5073623;28;20080;-75
2021/12/10 03:55:09;;;;;;;13.30;8.23;;;;;;;0.34;77.85;94988.41;5074636;28;20197;-76
2021/12/10 03:57:37;;;;;;;18.83;8.93;;;;;;;0.26;77.96;94993.53;5058494;28;20063;-75
2021/12/10 04:00:06;;;;;;;15.30;8.73;;;;;;;0.22;78.99;95002.50;5054584;28;20419;-75
2021/12/10 04:02:35;;;;;;;15.13;8.93;;;;;;;0.21;78.75;94995.75;5054440;28;20057;-76
2021/12/10 04:05:04;;;;;;;15.70;8.82;;;;;;;0.20;78.78;94999.31;5054122;28;20108;-75
2021/12/10 04:07:32;;;;;;;14.93;8.90;;;;;;;0.23;78.73;94998.97;5054346;28;20056;-75
2021/12/10 04:09:59;;;;;;;17.77;9.43;;;;;;;0.22;78.22;94994.81;5054643;28;20049;-75
2021/12/10 04:12:27;;;;;;;18.38;10.30;;;;;;;0.22;79.02;94996.56;5054357;28;20049;-75
2021/12/10 04:14:54;;;;;;;21.40;10.38;;;;;;;0.23;79.13;94998.97;5054723;28;20525;-76
2021/12/10 04:17:23;;;;;;;17.48;9.23;;;;;;;0.25;79.57;94986.81;5054273;28;20068;-75
2021/12/10 04:19:52;;;;;;;15.43;9.77;;;;;;;0.35;79.86;94991.78;5054092;28;20238;-75
2021/12/10 04:22:22;;;;;;;14.05;9.00;;;;;;;0.35;79.08;94992.59;5053561;28;20053;-76
2021/12/10 04:24:50;;;;;;;16.95;8.95;;;;;;;0.33;78.85;94991.94;5086461;22;20426;-80
2021/12/10 04:27:19;;;;;;;16.92;10.05;;;;;;;0.34;78.59;94990.97;5074788;28;20051;-79
2021/12/10 04:29:49;;;;;;;17.05;9.65;;;;;;;0.35;78.65;94996.91;5072618;28;20064;-79
2021/12/10 04:32:16;;;;;;;16.67;10.20;;;;;;;0.35;79.44;95000.28;5073555;28;20044;-80
2021/12/10 04:34:44;;;;;;;18.10;10.48;;;;;;;0.36;79.70;94993.41;5073160;28;20571;-80
2021/12/10 04:37:13;;;;;;;14.45;9.77;;;;;;;0.37;78.90;94985.56;5072509;28;20044;-80
2021/12/10 04:39:45;;;;;;;17.88;9.52;;;;;;;0.33;78.19;94981.69;5072839;28;20040;-78
2021/12/10 04:42:13;;;;;;;16.20;8.73;;;;;;;0.27;78.07;94976.41;5073296;28;20055;-80
2021/12/10 04:44:41;;;;;;;17.15;9.50;;;;;;;0.19;77.91;94966.91;5073269;28;20367;-79
2021/12/10 04:47:09;;;;;;;18.63;9.57;;;;;;;0.13;77.85;94960.66;5073020;28;20051;-81
2021/12/10 04:49:37;;;;;;;13.82;9.18;;;;;;;0.08;77.59;94955.19;5072541;28;20049;-79
2021/12/10 04:52:07;;;;;;;17.02;8.57;;;;;;;0.04;78.15;94942.84;5072314;28;20059;-79
2021/12/10 04:54:40;;;;;;;11.98;7.95;;;;;;;0.01;78.06;94938.84;5074067;28;20110;-79
2021/12/10 04:57:08;;;;;;;16.15;9.27;;;;;;;-0.01;77.68;94933.06;5072078;28;20548;-79
2021/12/10 04:59:38;;;;;;;14.75;10.25;;;;;;;-0.02;78.14;94929.72;5072519;28;20052;-79
2021/12/10 05:02:08;;;;;;;16.75;9.63;;;;;;;0.00;78.38;94916.75;5072396;28;20059;-80
2021/12/10 05:04:37;;;;;;;13.88;9.40;;;;;;;-0.03;77.91;94917.84;5072501;28;20052;-77
2021/12/10 05:07:05;;;;;;;14.10;8.80;;;;;;;-0.07;77.85;94908.84;5072146;28;20094;-78
2021/12/10 05:09:33;;;;;;;17.80;11.00;;;;;;;-0.05;79.00;94909.50;5072397;28;20411;-79
2021/12/10 05:12:02;;;;;;;20.05;10.10;;;;;;;0.01;79.18;94912.41;5072168;28;20149;-78
2021/12/10 05:14:32;;;;;;;14.50;9.10;;;;;;;0.01;78.84;94897.81;5071893;28;20048;-79
2021/12/10 05:17:05;;;;;;;15.48;10.18;;;;;;;0.04;79.69;94891.56;5072168;28;20051;-79
2021/12/10 05:19:34;;;;;;;16.42;9.77;;;;;;;0.06;79.39;94890.44;5072225;28;20056;-80
2021/12/10 05:22:02;;;;;;;16.25;9.23;;;;;;;0.07;78.97;94886.16;5072156;28;20426;-78
2021/12/10 05:24:31;;;;;;;16.42;9.57;;;;;;;0.08;78.64;94882.59;5071968;28;20059;-79
2021/12/10 05:27:00;;;;;;;13.30;8.90;;;;;;;0.07;78.35;94881.03;5071907;28;20421;-81
2021/12/10 05:29:29;;;;;;;16.95;9.25;;;;;;;0.06;78.37;94874.28;5072045;28;20048;-78
2021/12/10 05:31:59;;;;;;;13.85;8.35;;;;;;;0.02;78.16;94860.16;5072773;28;20086;-80
2021/12/10 05:34:27;;;;;;;14.90;9.20;;;;;;;-0.03;78.40;94855.53;5076627;28;20052;-79
2021/12/10 05:36:56;;;;;;;21.20;10.20;;;;;;;-0.03;78.53;94858.09;5079086;28;20102;-79
2021/12/10 05:39:23;;;;;;;17.55;9.85;;;;;;;0.01;79.66;94863.72;5079274;28;20060;-79
2021/12/10 05:41:52;;;;;;;14.57;8.93;;;;;;;0.04;79.64;94861.59;5078713;28;20070;-78
2021/12/10 05:44:20;;;;;;;14.57;9.70;;;;;;;0.06;79.13;94866.59;5079044;28;20052;-80
2021/12/10 05:46:49;;;;;;;17.42;8.52;;;;;;;0.05;78.95;94862.44;5078249;28;20052;-80
2021/12/10 05:49:16;;;;;;;13.38;9.18;;;;;;;0.10;79.40;94860.19;5078979;28;20474;-78
2021/12/10 05:51:45;;;;;;;27.27;16.70;;;;;;;0.19;80.17;94856.66;5078510;28;20522;-78
2021/12/10 05:54:13;;;;;;;18.60;11.07;;;;;;;0.24;79.50;94862.13;5078524;28;20063;-80
2021/12/10 05:56:40;;;;;;;18.05;10.07;;;;;;;0.27;78.62;94856.66;5078713;28;20048;-80
2021/12/10 05:59:08;;;;;;;16.50;9.32;;;;;;;0.29;78.47;94849.59;5078649;28;20059;-79
2021/12/10 06:01:36;;;;;;;16.83;10.65;;;;;;;0.31;78.56;94852.81;5077729;28;20052;-81
2021/12/10 06:04:05;;;;;;;20.02;10.98;;;;;;;0.41;79.98;94843.16;5078309;28;20099;-80
2021/12/10 06:06:34;;;;;;;17.50;11.63;;;;;;;0.52;80.83;94841.25;5076813;28;20045;-77
2021/12/10 06:09:05;;;;;;;16.48;10.38;;;;;;;0.61;80.27;94835.13;5075862;28;20053;-78
2021/12/10 06:11:33;;;;;;;19.23;10.23;;;;;;;0.61;78.73;94819.72;5071731;28;20036;-78
2021/12/10 06:14:00;;;;;;;14.20;9.60;;;;;;;0.56;78.47;94824.56;5074448;28;20059;-77
2021/12/10 06:16:28;;;;;;;14.93;10.02;;;;;;;0.53;78.09;94817.19;5074356;28;20437;-76
2021/12/10 06:18:56;;;;;;;18.33;9.57;;;;;;;0.49;77.36;94819.28;5074588;28;20145;-76
2021/12/10 06:21:25;;;;;;;16.20;9.80;;;;;;;0.46;77.23;94813.66;5074854;28;20049;-76
2021/12/10 06:23:52;;;;;;;15.93;9.35;;;;;;;0.47;77.60;94810.16;5074791;28;20060;-76
2021/12/10 06:26:20;;;;;;;19.73;10.32;;;;;;;0.47;77.60;94807.59;5074420;28;20048;-76
2021/12/10 06:28:48;;;;;;;15.88;9.60;;;;;;;0.46;77.51;94803.41;5061330;28;20057;-76
2021/12/10 06:31:18;;;;;;;16.98;10.20;;;;;;;0.41;77.42;94796.19;5055014;28;20060;-76
2021/12/10 06:33:45;;;;;;;18.90;10.25;;;;;;;0.34;76.93;94788.34;5054753;28;20136;-76
2021/12/10 06:36:15;;;;;;;15.38;9.07;;;;;;;0.28;76.99;94780.53;5054546;28;20053;-75
2021/12/10 06:38:44;;;;;;;14.00;9.43;;;;;;;0.22;77.55;94771.72;5054826;28;20049;-77
2021/12/10 06:41:14;;;;;;;15.02;9.32;;;;;;;0.18;77.73;94762.75;5054357;28;20045;-76
2021/12/10 06:43:43;;;;;;;14.50;8.25;;;;;;;0.13;77.97;94755.56;5054527;28;20396;-75
2021/12/10 06:46:12;;;;;;;16.92;8.98;;;;;;;0.09;77.25;94750.88;5054149;28;20057;-74
2021/12/10 06:48:40;;;;;;;16.17;8.85;;;;;;;-0.02;77.42;94744.34;5054572;28;20114;-75
2021/12/10 06:51:14;;;;;;;15.52;9.32;;;;;;;-0.09;77.68;94738.25;5051666;28;20459;-74
2021/12/10 06:53:45;;;;;;;14.52;8.75;;;;;;;-0.13;77.40;94742.94;5065501;28;20052;-74
2021/12/10 06:56:13;;;;;;;17.73;11.20;;;;;;;-0.16;77.67;94748.34;5073804;28;20049;-74
2021/12/10 06:58:42;;;;;;;21.42;10.00;;;;;;;-0.14;77.75;94745.63;5074067;28;20051;-74
2021/12/10 07:01:14;;;;;;;12.98;8.98;;;;;;;-0.10;78.07;94747.72;5054943;28;20045;-74
2021/12/10 07:03:45;;;;;;;16.70;9.40;;;;;;;0.01;78.08;94756.84;5054127;28;20056;-74
2021/12/10 07:06:12;;;;;;;14.85;9.13;;;;;;;0.07;77.45;94757.97;5053760;28;20291;-74
2021/12/10 07:08:44;;;;;;;17.00;9.77;;;;;;;0.11;77.15;94759.22;5054271;28;20044;-76
2021/12/10 07:11:14;;;;;;;16.75;9.93;;;;;;;0.11;76.73;94759.22;5054171;28;20045;-77
2021/12/10 07:13:44;;;;;;;17.67;10.00;;;;;;;0.09;77.01;94745.75;5054448;28;20056;-75
2021/12/10 07:16:12;;;;;;;17.85;11.23;;;;;;;0.12;77.49;94746.25;5053559;28;20053;-77
2021/12/10 07:18:40;;;;;;;17.10;10.40;;;;;;;0.11;76.88;94748.97;5056643;28;20056;-77
2021/12/10 07:21:09;;;;;;;20.52;9.48;;;;;;;0.04;76.49;94740.31;5074257;28;20044;-77
2021/12/10 07:23:37;;;;;;;21.25;11.93;;;;;;;-0.04;76.50;94738.59;5073683;28;20056;-78
2021/12/10 07:26:06;;;;;;;16.42;9.80;;;;;;;-0.07;76.87;94715.84;5073737;28;20048;-79
2021/12/10 07:28:34;;;;;;;15.32;8.85;;;;;;;-0.08;76.63;94717.59;5073824;28;20417;-77
2021/12/10 07:31:03;;;;;;;15.48;9.05;;;;;;;-0.10;76.90;94711.84;5073719;28;20055;-77
2021/12/10 07:33:31;;;;;;;15.90;9.40;;;;;;;-0.07;77.03;94710.69;5073965;28;20066;-78
2021/12/10 07:35:58;;;;;;;13.05;7.90;;;;;;;-0.08;76.83;94712.47;5073299;28;20704;-77
2021/12/10 07:38:26;;;;;;;12.48;8.18;;;;;;;-0.08;76.73;94715.03;5073659;28;20098;-77
2021/12/10 07:40:54;;;;;;;15.50;7.68;;;;;;;-0.06;76.59;94708.00;5073406;28;20048;-77
2021/12/10 07:43:23;;;;;;;14.77;8.27;;;;;;;-0.05;76.47;94709.56;5073324;28;20105;-78
2021/12/10 07:45:52;;;;;;;14.18;7.72;;;;;;;-0.03;76.12;94701.72;5073792;28;20059;-78
2021/12/10 07:48:23;;;;;;;13.95;7.90;;;;;;;-0.03;76.27;94701.72;5073802;28;20131;-78
2021/12/10 07:50:57;;;;;;;13.75;7.45;;;;;;;-0.05;75.95;94694.19;5073507;28;20048;-80
2021/12/10 07:53:27;;;;;;;17.33;8.27;;;;;;;-0.06;75.90;94689.25;5073341;28;20104;-81
2021/12/10 07:55:55;;;;;;;12.25;7.78;;;;;;;-0.10;75.97;94681.06;5072253;28;20045;-81
2021/12/10 07:58:24;;;;;;;12.77;7.88;;;;;;;-0.11;75.87;94674.38;5073231;28;20049;-78
2021/12/10 08:00:52;;;;;;;12.02;6.95;;;;;;;-0.09;76.16;94669.88;5073370;28;20135;-77
2021/12/10 08:03:20;;;;;;;15.70;6.63;;;;;;;-0.06;76.20;94672.09;5073079;28;20506;-80
2021/12/10 08:05:48;;;;;;;13.27;6.75;;;;;;;-0.06;75.87;94659.28;5068353;28;20049;-78
2021/12/10 08:08:16;;;;;;;13.13;6.75;;;;;;;-0.03;75.59;94656.38;5052989;28;20067;-78
2021/12/10 08:10:47;;;;;;;11.90;6.78;;;;;;;0.00;75.79;94647.59;5053126;28;20522;-81
2021/12/10 08:13:16;;;;;;;12.00;7.10;;;;;;;0.03;75.83;94644.69;5052927;28;20399;-80
2021/12/10 08:15:45;;;;;;;14.98;6.90;;;;;;;0.03;75.76;94638.78;5053238;28;20053;-77
2021/12/10 08:18:12;;;;;;;9.85;6.53;;;;;;;-0.01;75.41;94636.53;5052739;28;20049;-82
2021/12/10 08:20:40;;;;;;;12.00;6.93;;;;;;;-0.07;75.13;94629.47;5071588;28;20429;-79
2021/12/10 08:23:08;;;;;;;9.52;7.13;;;;;;;-0.09;75.21;94616.06;5072299;28;20044;-78
2021/12/10 08:25:37;;;;;;;8.70;5.32;;;;;;;-0.07;75.19;94600.50;5072778;28;20052;-77
2021/12/10 08:28:06;;;;;;;9.73;5.28;;;;;;;-0.04;75.10;94600.19;5052568;28;20056;-77
2021/12/10 08:30:36;;;;;;;6.95;4.10;;;;;;;-0.04;73.98;94593.28;5052716;28;20565;-79
2021/12/10 08:33:11;;;;;;;7.90;4.47;;;;;;;-0.02;74.03;94580.31;5053817;28;20052;-77
2021/12/10 08:35:41;;;;;;;10.05;4.32;;;;;;;0.01;73.82;94563.81;5052331;28;20525;-76
2021/12/10 08:38:09;;;;;;;8.50;4.55;;;;;;;0.05;73.80;94559.94;5052190;28;20060;-77
2021/12/10 08:40:42;;;;;;;6.95;4.00;;;;;;;0.12;73.57;94553.97;5052368;28;20075;-79
2021/12/10 08:43:10;;;;;;;8.00;4.65;;;;;;;0.20;73.86;94550.56;5052124;28;20048;-77
2021/12/10 08:45:41;;;;;;;8.90;5.15;;;;;;;0.29;74.41;94549.56;5052194;28;20056;-77
2021/12/10 08:48:11;;;;;;;11.20;5.25;;;;;;;0.38;74.05;94545.19;5051916;28;20518;-76
2021/12/10 08:50:41;;;;;;;7.88;4.30;;;;;;;0.44;73.58;94541.13;5052259;28;20063;-77
2021/12/10 08:53:12;;;;;;;8.18;5.35;;;;;;;0.49;74.52;94544.78;5052258;28;20453;-77
2021/12/10 08:55:42;;;;;;;6.00;3.53;;;;;;;0.52;72.71;94531.63;5052064;28;20049;-77
2021/12/10 08:58:11;;;;;;;5.35;3.45;;;;;;;0.54;73.52;94527.13;5051796;28;20053;-76
2021/12/10 09:00:40;;;;;;;5.13;3.58;;;;;;;0.56;73.41;94542.34;5051913;28;20064;-76
2021/12/10 09:03:10;;;;;;;4.40;2.72;;;;;;;0.54;73.16;94539.16;5052376;28;20049;-76
2021/12/10 09:05:39;;;;;;;4.43;3.28;;;;;;;0.52;72.51;94541.09;5056185;28;20067;-77
2021/12/10 09:08:07;;;;;;;6.05;4.10;;;;;;;0.47;72.36;94533.13;5073525;28;20062;-78
2021/12/10 09:10:38;;;;;;;6.82;3.80;;;;;;;0.48;73.51;94534.69;5073126;28;20395;-76
2021/12/10 09:13:13;;;;;;;5.45;3.10;;;;;;;0.49;73.24;94531.97;5072463;28;20063;-77
2021/12/10 09:15:41;;;;;;;5.15;2.70;;;;;;;0.50;72.46;94525.84;5071912;28;20701;-77
2021/12/10 09:18:10;;;;;;;4.30;3.00;;;;;;;0.51;72.17;94536.94;5072083;28;20052;-77
2021/12/10 09:20:41;;;;;;;5.75;3.35;;;;;;;0.52;71.92;94526.50;5052687;28;20049;-77
2021/12/10 09:23:12;;;;;;;4.75;2.97;;;;;;;0.50;71.30;94515.59;5051556;28;20423;-77
2021/12/10 09:25:41;;;;;;;4.57;3.30;;;;;;;0.48;71.30;94525.25;5052097;28;20055;-80
2021/12/10 09:28:09;;;;;;;5.25;2.80;;;;;;;0.48;71.51;94520.13;5051535;28;20049;-77
2021/12/10 09:30:44;;;;;;;6.80;3.17;;;;;;;0.52;70.41;94528.25;5052139;28;20082;-77
2021/12/10 09:33:13;;;;;;;3.75;2.25;;;;;;;0.57;70.26;94515.75;5051444;28;20497;-76
2021/12/10 09:35:41;;;;;;;4.30;2.80;;;;;;;0.56;69.95;94514.91;5051546;28;20057;-76
2021/12/10 09:38:09;;;;;;;4.65;2.47;;;;;;;0.60;70.74;94512.81;5051294;28;20045;-76
2021/12/10 09:40:39;;;;;;;4.63;2.53;;;;;;;0.66;71.64;94514.69;5051725;28;20652;-76
2021/12/10 09:43:09;;;;;;;4.20;2.15;;;;;;;0.74;70.00;94506.91;5051408;28;20055;-77
2021/12/10 09:45:39;;;;;;;4.13;2.20;;;;;;;0.75;69.84;94512.88;5051425;28;20049;-76
2021/12/10 09:48:09;;;;;;;5.75;2.47;;;;;;;0.78;69.80;94510.75;5051220;28;20056;-76
2021/12/10 09:50:44;;;;;;;5.03;2.35;;;;;;;0.85;69.00;94510.84;5051284;28;20052;-77
2021/12/10 09:53:12;;;;;;;4.75;2.40;;;;;;;0.94;69.29;94514.16;5051387;28;20525;-77
2021/12/10 09:55:46;;;;;;;;;;;;;;;1.05;69.15;94510.38;5051781;28;20049;-78
2021/12/10 09:58:14;;;;;;;2.72;2.03;;;;;;;1.11;69.03;94514.81;5059099;28;19920;-77
2021/12/10 10:00:45;;;;;;;2.72;1.88;;;;;;;1.17;68.18;94512.34;5071385;28;20052;-77
2021/12/10 10:03:16;;;;;;;3.15;2.10;;;;;;;1.22;67.54;94504.94;5071500;28;20045;-76
2021/12/10 10:05:45;;;;;;;3.63;2.20;;;;;;;1.24;67.75;94504.72;5071202;28;20048;-77
2021/12/10 10:08:17;;;;;;;2.75;2.10;;;;;;;1.31;67.62;94507.41;5071003;28;20612;-76
2021/12/10 10:10:50;;;;;;;5.88;2.63;;;;;;;1.38;68.70;94505.75;5071604;28;20060;-77
2021/12/10 10:13:19;;;;;;;4.82;2.30;;;;;;;1.47;67.84;94509.81;5071827;28;20457;-78
2021/12/10 10:15:48;;;;;;;4.78;2.47;;;;;;;1.52;68.15;94510.06;5071322;28;20052;-77
2021/12/10 10:18:18;;;;;;;3.55;1.73;;;;;;;1.58;67.85;94506.81;5071584;28;20052;-78
2021/12/10 10:20:54;;;;;;;3.13;2.35;;;;;;;1.59;66.90;94498.09;5073910;28;20048;-78
2021/12/10 10:23:22;;;;;;;3.20;2.20;;;;;;;1.56;66.57;94477.91;5075255;28;20044;-78
2021/12/10 10:25:54;;;;;;;4.47;2.20;;;;;;;1.54;66.35;94474.72;5074781;28;20055;-77
2021/12/10 10:28:22;;;;;;;2.15;1.60;;;;;;;1.53;66.22;94474.88;5075243;28;20084;-77
2021/12/10 10:30:58;;;;;;;4.30;2.13;;;;;;;1.59;66.33;94467.25;5075028;28;20064;-77
2021/12/10 10:33:26;;;;;;;10.02;2.97;;;;;;;1.74;65.64;94461.31;5074754;28;20064;-77
2021/12/10 10:35:59;;;;;;;3.05;1.35;;;;;;;1.80;64.84;94443.41;5074792;28;20052;-76
2021/12/10 10:38:27;;;;;;;2.05;1.00;;;;;;;1.87;66.52;94443.47;5074495;28;20044;-77
2021/12/10 10:40:59;;;;;;;1.50;1.30;;;;;;;1.87;66.23;94440.91;5074259;28;20044;-78
2021/12/10 10:43:28;;;;;;;2.75;1.33;;;;;;;1.88;66.54;94439.94;5074288;28;20526;-77
2021/12/10 10:45:58;;;;;;;7.80;1.42;;;;;;;1.88;65.47;94432.25;5075200;28;20045;-77
2021/12/10 10:48:27;;;;;;;2.58;1.33;;;;;;;1.89;67.29;94443.31;5054716;28;20064;-76
2021/12/10 10:51:01;;;;;;;3.70;1.27;;;;;;;1.85;65.61;94441.09;5054312;28;20454;-77
2021/12/10 10:53:33;;;;;;;2.30;1.92;;;;;;;1.83;65.61;94443.03;5054576;28;20045;-77
2021/12/10 10:56:04;;;;;;;5.95;1.52;;;;;;;1.82;66.46;94433.75;5054068;28;20049;-77
2021/12/10 10:58:35;;;;;;;6.05;1.67;;;;;;;1.80;65.17;94427.19;5064502;28;20053;-76
2021/12/10 11:01:10;;;;;;;1.95;1.27;;;;;;;1.81;66.76;94433.91;5074253;28;20053;-77
2021/12/10 11:04:02;;;;;;;6.90;2.05;;;;;;;1.81;66.97;94423.63;5074037;28;20040;-76
2021/12/10 11:06:35;;;;;;;3.67;1.55;;;;;;;1.79;65.36;94435.88;5073656;28;20106;-77
2021/12/10 11:09:10;;;;;;;2.60;1.48;;;;;;;1.78;65.00;94447.13;5074165;28;20052;-77
2021/12/10 11:11:45;;;;;;;3.05;1.23;;;;;;;1.77;65.80;94454.06;5073879;28;20399;-77
2021/12/10 11:14:19;;;;;;;3.05;2.10;;;;;;;1.73;64.70;94452.81;5074042;28;20048;-77
2021/12/10 11:16:51;;;;;;;4.28;1.70;;;;;;;1.71;65.06;94448.84;5073936;28;20445;-77
2021/12/10 11:19:21;;;;;;;5.00;2.75;;;;;;;1.71;66.66;94448.84;5065680;28;20048;-77
2021/12/10 11:21:53;;;;;;;5.88;2.33;;;;;;;1.72;65.82;94445.28;5053862;28;20075;-77
2021/12/10 11:24:23;;;;;;;5.68;2.38;;;;;;;1.75;66.93;94450.88;5053693;28;20505;-78
2021/12/10 11:26:57;;;;;;;3.58;2.22;;;;;;;1.78;66.90;94449.72;5054109;28;20053;-77
2021/12/10 11:29:42;;;;;;;4.88;2.25;;;;;;;1.79;67.62;94446.16;5054278;28;20055;-79
2021/12/10 11:32:15;;;;;;;7.32;3.30;;;;;;;1.79;66.06;94451.28;5053727;28;20045;-77
2021/12/10 11:34:49;;;;;;;3.13;2.63;;;;;;;1.74;65.70;94444.13;5054616;28;20417;-80
2021/12/10 11:37:39;;;;;;;4.83;2.43;;;;;;;1.69;66.75;94448.22;5054284;28;20049;-77
2021/12/10 11:40:09;;;;;;;4.50;2.47;;;;;;;1.62;65.88;94443.00;5054371;28;20274;-75
2021/12/10 11:42:43;;;;;;;4.43;3.00;;;;;;;1.54;65.67;94438.75;5053390;28;20075;-77
2021/12/10 11:45:32;;;;;;;4.35;2.38;;;;;;;1.51;65.93;94439.13;5052769;28;20456;-74
2021/12/10 11:48:10;;;;;;;5.40;3.03;;;;;;;1.48;67.28;94439.47;5052928;28;20056;-74
2021/12/10 11:50:42;;;;;;;4.90;2.60;;;;;;;1.50;66.13;94427.22;5053112;28;20052;-76
2021/12/10 11:53:14;;;;;;;3.30;2.17;;;;;;;1.49;65.62;94420.50;5053509;28;20049;-78
2021/12/10 11:55:56;;;;;;;4.78;1.77;;;;;;;1.50;65.67;94419.53;5053805;28;20052;-78
2021/12/10 11:58:24;;;;;;;4.07;2.03;;;;;;;1.54;66.22;94418.19;5063770;28;20501;-79